createdAt,value
2018-07-05T00:02:00.886Z,4.13
2018-07-05T00:04:41.940Z,4.00
2018-07-05T00:07:22.426Z,4.20
2018-07-05T00:10:02.970Z,3.53
2018-07-05T00:12:43.984Z,3.77
2018-07-05T00:15:24.625Z,3.30
2018-07-05T00:18:05.198Z,3.93
2018-07-05T00:20:46.296Z,3.63
2018-07-05T00:23:27.026Z,3.27
2018-07-05T00:26:07.519Z,3.80
2018-07-05T00:28:48.157Z,3.53
2018-07-05T00:31:28.781Z,4.27
2018-07-05T00:34:09.634Z,3.93
2018-07-05T00:36:50.667Z,3.47
2018-07-05T00:39:31.745Z,3.47
2018-07-05T00:42:12.218Z,3.30
2018-07-05T00:44:52.994Z,3.37
2018-07-05T00:47:33.360Z,3.37
2018-07-05T00:50:13.969Z,3.50
2018-07-05T00:52:54.694Z,3.33
2018-07-05T00:55:35.952Z,3.53
2018-07-05T00:58:16.426Z,3.50
2018-07-05T01:00:57.065Z,3.17
2018-07-05T01:03:38.050Z,3.30
2018-07-05T01:06:18.918Z,3.60
2018-07-05T01:08:59.553Z,3.40
2018-07-05T01:11:40.214Z,3.60
2018-07-05T01:14:20.686Z,3.30
2018-07-05T01:17:02.030Z,3.27
2018-07-05T01:19:42.451Z,3.20
2018-07-05T01:22:23.358Z,3.50
2018-07-05T01:25:04.844Z,3.77
2018-07-05T01:27:45.554Z,3.07
2018-07-05T01:30:26.390Z,3.10
2018-07-05T01:33:07.432Z,2.87
2018-07-05T01:35:48.552Z,3.20
2018-07-05T01:38:29.098Z,3.40
2018-07-05T01:41:09.797Z,3.43
2018-07-05T01:43:50.381Z,3.60
2018-07-05T01:46:30.823Z,3.60
2018-07-05T01:49:11.556Z,3.80
2018-07-05T01:51:51.990Z,3.20
2018-07-05T01:54:32.652Z,3.40
2018-07-05T01:57:13.108Z,3.40
2018-07-05T01:59:53.439Z,3.30
2018-07-05T02:02:34.195Z,3.50
2018-07-05T02:05:14.758Z,3.60
2018-07-05T02:07:55.206Z,3.43
2018-07-05T02:10:35.954Z,3.57
2018-07-05T02:13:16.868Z,3.77
2018-07-05T02:15:57.576Z,3.67
2018-07-05T02:18:38.369Z,3.80
2018-07-05T02:21:19.378Z,3.83
2018-07-05T02:24:00.225Z,3.97
2018-07-05T02:26:40.675Z,3.60
2018-07-05T02:29:21.613Z,3.30
2018-07-05T02:32:02.218Z,3.37
2018-07-05T02:34:42.605Z,3.63
2018-07-05T02:37:28.450Z,3.60
2018-07-05T02:40:09.060Z,4.00
2018-07-05T02:42:50.016Z,4.10
2018-07-05T02:45:30.406Z,4.30
2018-07-05T02:48:11.067Z,4.60
2018-07-05T02:50:51.717Z,4.87
2018-07-05T02:53:32.475Z,4.23
2018-07-05T02:56:13.479Z,3.90
2018-07-05T02:58:53.942Z,4.17
2018-07-05T03:01:34.967Z,4.20
2018-07-05T03:04:16.020Z,5.03
2018-07-05T03:06:57.611Z,4.73
2018-07-05T03:09:38.322Z,4.53
2018-07-05T03:12:19.682Z,5.50
2018-07-05T03:15:00.566Z,4.80
2018-07-05T03:17:41.555Z,5.73
2018-07-05T03:20:22.293Z,5.87
2018-07-05T03:23:03.024Z,5.30
2018-07-05T03:25:43.422Z,5.63
2018-07-05T03:28:24.262Z,5.70
2018-07-05T03:31:04.716Z,5.13
2018-07-05T03:33:49.045Z,5.10
2018-07-05T03:36:29.910Z,5.07
2018-07-05T03:39:10.608Z,5.60
2018-07-05T03:41:51.582Z,5.50
2018-07-05T03:44:32.121Z,5.50
2018-07-05T03:47:12.734Z,5.37
2018-07-05T03:49:53.202Z,5.50
2018-07-05T03:52:33.762Z,5.37
2018-07-05T03:55:14.198Z,4.97
2018-07-05T03:57:54.769Z,5.47
2018-07-05T04:00:38.388Z,6.13
2018-07-05T04:03:19.255Z,5.73
2018-07-05T04:06:00.070Z,5.97
2018-07-05T04:08:40.502Z,5.67
2018-07-05T04:11:24.643Z,5.40
2018-07-05T04:14:05.345Z,5.40
2018-07-05T04:16:46.155Z,5.60
2018-07-05T04:19:26.724Z,5.97
2018-07-05T04:22:07.205Z,5.80
2018-07-05T04:24:48.737Z,6.73
2018-07-05T04:27:29.727Z,6.63
2018-07-05T04:30:10.652Z,5.97
2018-07-05T04:32:51.048Z,5.80
2018-07-05T04:35:32.376Z,6.30
2018-07-05T04:38:12.789Z,5.67
2018-07-05T04:40:53.551Z,6.03
2018-07-05T04:43:34.086Z,6.10
2018-07-05T04:46:14.574Z,5.73
2018-07-05T04:48:55.235Z,6.10
2018-07-05T04:51:35.999Z,6.20
2018-07-05T04:54:18.250Z,6.57
2018-07-05T04:56:59.014Z,6.47
2018-07-05T04:59:40.096Z,6.83
2018-07-05T05:02:21.042Z,7.00
2018-07-05T05:05:02.370Z,7.43
2018-07-05T05:07:42.794Z,6.70
2018-07-05T05:10:23.650Z,6.50
2018-07-05T05:13:04.475Z,7.00
2018-07-05T05:15:44.827Z,7.80
2018-07-05T05:18:25.268Z,7.67
2018-07-05T05:21:05.867Z,8.10
2018-07-05T05:23:46.486Z,7.97
2018-07-05T05:26:27.061Z,7.60
2018-07-05T05:29:07.668Z,7.67
2018-07-05T05:31:48.947Z,8.10
2018-07-05T05:34:29.656Z,7.97
2018-07-05T05:37:10.773Z,8.53
2018-07-05T05:39:51.464Z,8.23
2018-07-05T05:42:36.154Z,8.20
2018-07-05T05:45:17.495Z,8.23
2018-07-05T05:47:58.066Z,8.47
2018-07-05T05:50:38.632Z,8.40
2018-07-05T05:53:19.450Z,8.53
2018-07-05T05:56:00.116Z,8.10
2018-07-05T05:58:41.964Z,8.20
2018-07-05T06:01:22.611Z,8.17
2018-07-05T06:04:03.410Z,9.47
2018-07-05T06:06:43.963Z,8.67
2018-07-05T06:09:24.526Z,9.13
2018-07-05T06:12:05.018Z,9.00
2018-07-05T06:14:45.566Z,9.17
2018-07-05T06:17:25.950Z,9.00
2018-07-05T06:20:06.378Z,9.50
2018-07-05T06:22:46.901Z,8.87
2018-07-05T06:25:27.478Z,9.20
2018-07-05T06:28:07.879Z,9.90
2018-07-05T06:30:48.829Z,8.97
2018-07-05T06:33:29.672Z,8.70
2018-07-05T06:36:10.082Z,8.73
2018-07-05T06:38:50.519Z,9.23
2018-07-05T06:41:31.480Z,10.17
2018-07-05T06:44:12.268Z,9.40
2018-07-05T06:46:52.767Z,9.17
2018-07-05T06:49:33.345Z,8.37
2018-07-05T06:52:13.983Z,8.90
2018-07-05T06:54:54.412Z,9.37
2018-07-05T06:57:34.870Z,9.77
2018-07-05T07:00:15.538Z,10.07
2018-07-05T07:02:55.922Z,10.13
2018-07-05T07:05:36.274Z,10.27
2018-07-05T07:08:17.041Z,10.77
2018-07-05T07:10:58.041Z,10.40
2018-07-05T07:13:38.945Z,12.17
2018-07-05T07:16:19.440Z,13.13
2018-07-05T07:19:00.447Z,12.47
2018-07-05T07:21:40.915Z,11.77
2018-07-05T07:24:21.657Z,10.43
2018-07-05T07:27:02.749Z,11.03
2018-07-05T07:29:43.124Z,9.80
2018-07-05T07:32:23.609Z,9.63
2018-07-05T07:35:04.419Z,11.13
2018-07-05T07:37:45.748Z,10.87
2018-07-05T07:40:26.318Z,9.93
2018-07-05T07:42:54.362Z,10.77
2018-07-05T07:45:22.460Z,11.80
2018-07-05T07:47:50.655Z,11.53
2018-07-05T07:50:19.050Z,12.63
2018-07-05T07:52:47.466Z,14.33
2018-07-05T07:55:15.721Z,14.23
2018-07-05T07:57:44.111Z,17.93
2018-07-05T08:00:12.488Z,16.53
2018-07-05T08:02:40.748Z,14.47
2018-07-05T08:05:08.811Z,14.07
2018-07-05T08:07:37.711Z,14.27
2018-07-05T08:10:05.717Z,14.23
2018-07-05T08:12:34.014Z,14.23
2018-07-05T08:15:02.698Z,13.20
2018-07-05T08:17:30.652Z,16.17
2018-07-05T08:19:59.537Z,14.67
2018-07-05T08:22:28.540Z,13.40
2018-07-05T08:24:56.856Z,12.87
2018-07-05T08:27:25.043Z,13.20
2018-07-05T08:29:53.762Z,12.90
2018-07-05T08:32:22.007Z,11.67
2018-07-05T08:34:50.138Z,12.87
2018-07-05T08:37:18.588Z,16.43
2018-07-05T08:39:46.706Z,16.43
2018-07-05T08:42:14.761Z,15.13
2018-07-05T08:44:43.137Z,14.40
2018-07-05T08:47:11.113Z,13.77
2018-07-05T08:49:39.418Z,13.57
2018-07-05T08:52:07.923Z,12.30
2018-07-05T08:54:35.978Z,14.70
2018-07-05T08:57:04.275Z,11.67
2018-07-05T08:59:33.065Z,13.30
2018-07-05T09:02:01.051Z,11.83
2018-07-05T09:04:29.025Z,13.03
2018-07-05T09:06:57.875Z,11.90
2018-07-05T09:09:26.317Z,12.97
2018-07-05T09:11:54.658Z,12.93
2018-07-05T09:14:22.972Z,12.53
2018-07-05T09:16:51.294Z,10.83
2018-07-05T09:19:20.274Z,12.10
2018-07-05T09:21:48.534Z,11.80
2018-07-05T09:24:16.618Z,13.17
2018-07-05T09:26:45.450Z,13.83
2018-07-05T09:29:13.788Z,11.83
2018-07-05T09:31:45.328Z,12.63
2018-07-05T09:34:14.677Z,13.40
2018-07-05T09:36:42.713Z,12.53
2018-07-05T09:39:10.717Z,11.53
2018-07-05T09:41:39.472Z,9.33
2018-07-05T09:44:08.014Z,10.57
2018-07-05T09:46:36.247Z,11.20
2018-07-05T09:49:04.299Z,13.60
2018-07-05T09:51:35.558Z,10.37
2018-07-05T09:54:03.695Z,8.53
2018-07-05T09:56:31.720Z,9.10
2018-07-05T09:58:59.986Z,10.20
2018-07-05T10:01:28.074Z,8.80
2018-07-05T10:03:56.347Z,10.60
2018-07-05T10:06:24.736Z,8.57
2018-07-05T10:08:53.453Z,9.57
2018-07-05T10:11:21.878Z,7.30
2018-07-05T10:13:50.539Z,7.23
2018-07-05T10:16:18.632Z,7.30
2018-07-05T10:18:46.947Z,6.10
2018-07-05T10:21:15.078Z,6.90
2018-07-05T10:23:43.512Z,6.83
2018-07-05T10:26:11.629Z,5.80
2018-07-05T10:28:52.633Z,6.07
2018-07-05T10:31:34.110Z,6.20
2018-07-05T10:34:02.400Z,6.70
2018-07-05T10:36:30.429Z,5.70
2018-07-05T10:38:58.442Z,5.40
2018-07-05T10:41:38.825Z,6.67
2018-07-05T10:44:19.154Z,6.60
2018-07-05T10:47:00.030Z,5.57
2018-07-05T10:49:40.727Z,8.70
2018-07-05T10:52:20.961Z,5.77
2018-07-05T10:55:01.718Z,6.50
2018-07-05T10:57:42.691Z,6.30
2018-07-05T11:00:23.675Z,4.73
2018-07-05T11:03:04.550Z,5.10
2018-07-05T11:05:49.079Z,6.23
2018-07-05T11:08:29.573Z,6.40
2018-07-05T11:11:10.575Z,6.17
2018-07-05T11:13:51.379Z,5.00
2018-07-05T11:16:32.011Z,5.10
2018-07-05T11:19:12.644Z,5.17
2018-07-05T11:21:53.521Z,5.43
2018-07-05T11:24:34.193Z,5.73
2018-07-05T11:27:15.138Z,4.70
2018-07-05T11:29:55.918Z,5.50
2018-07-05T11:32:36.891Z,4.73
2018-07-05T11:35:17.493Z,4.80
2018-07-05T11:37:57.983Z,4.53
2018-07-05T11:40:38.469Z,4.60
2018-07-05T11:43:19.314Z,4.30
2018-07-05T11:45:59.869Z,3.93
2018-07-05T11:48:40.444Z,4.80
2018-07-05T11:51:21.234Z,4.50
2018-07-05T11:54:02.712Z,4.77
2018-07-05T11:56:43.194Z,4.60
2018-07-05T11:59:23.799Z,5.07
2018-07-05T12:02:04.641Z,3.97
2018-07-05T12:04:45.033Z,4.20
2018-07-05T12:07:25.533Z,4.20
2018-07-05T12:10:06.159Z,4.60
2018-07-05T12:12:46.744Z,6.60
2018-07-05T12:15:27.098Z,5.20
2018-07-05T12:18:08.318Z,4.80
2018-07-05T12:20:48.696Z,4.47
2018-07-05T12:23:29.658Z,5.00
2018-07-05T12:26:10.248Z,4.40
2018-07-05T12:28:51.174Z,4.50
2018-07-05T12:31:31.747Z,5.07
2018-07-05T12:34:12.589Z,4.33
2018-07-05T12:36:53.768Z,4.20
2018-07-05T12:39:34.767Z,3.60
2018-07-05T12:42:15.603Z,4.03
2018-07-05T12:44:56.531Z,3.83
2018-07-05T12:47:37.029Z,3.80
2018-07-05T12:50:18.322Z,3.97
2018-07-05T12:52:58.774Z,3.87
2018-07-05T12:55:42.864Z,3.93
2018-07-05T12:58:23.678Z,3.50
2018-07-05T13:01:04.430Z,3.10
2018-07-05T13:03:45.554Z,3.30
2018-07-05T13:06:26.579Z,2.90
2018-07-05T13:09:08.665Z,3.00
2018-07-05T13:11:49.320Z,2.80
2018-07-05T13:14:30.312Z,2.60
2018-07-05T13:17:10.977Z,3.93
2018-07-05T13:19:51.660Z,2.40
2018-07-05T13:22:32.098Z,2.50
2018-07-05T13:25:12.762Z,2.60
2018-07-05T13:27:53.866Z,3.37
2018-07-05T13:30:34.827Z,2.70
2018-07-05T13:33:15.479Z,2.60
2018-07-05T13:35:56.015Z,2.87
2018-07-05T13:38:36.733Z,2.40
2018-07-05T13:41:17.597Z,2.37
2018-07-05T13:43:58.151Z,2.93
2018-07-05T13:46:39.053Z,2.97
2018-07-05T13:49:19.620Z,2.73
2018-07-05T13:52:00.172Z,3.30
2018-07-05T13:54:40.878Z,3.07
2018-07-05T13:57:22.053Z,3.10
2018-07-05T14:00:02.896Z,2.97
2018-07-05T14:02:43.682Z,3.30
2018-07-05T14:05:24.449Z,3.53
2018-07-05T14:08:05.021Z,3.17
2018-07-05T14:10:45.649Z,3.00
2018-07-05T14:13:26.071Z,3.57
2018-07-05T14:16:06.558Z,3.60
2018-07-05T14:18:47.041Z,3.27
2018-07-05T14:21:31.173Z,2.77
2018-07-05T14:24:11.705Z,3.33
2018-07-05T14:26:52.678Z,3.40
2018-07-05T14:29:33.138Z,3.40
2018-07-05T14:32:14.183Z,3.37
2018-07-05T14:34:54.817Z,3.17
2018-07-05T14:37:35.633Z,3.80
2018-07-05T14:40:16.712Z,3.00
2018-07-05T14:42:57.553Z,2.77
2018-07-05T14:45:38.329Z,3.03
2018-07-05T14:48:18.644Z,3.03
2018-07-05T14:50:59.421Z,3.60
2018-07-05T14:53:40.426Z,3.40
2018-07-05T14:56:21.326Z,3.80
2018-07-05T14:59:02.365Z,3.73
2018-07-05T15:01:42.857Z,3.70
2018-07-05T15:04:23.434Z,4.17
2018-07-05T15:07:04.105Z,3.57
2018-07-05T15:09:44.663Z,3.33
2018-07-05T15:12:25.504Z,3.50
2018-07-05T15:15:05.947Z,3.43
2018-07-05T15:17:46.399Z,3.13
2018-07-05T15:20:26.971Z,3.27
2018-07-05T15:23:07.471Z,3.07
2018-07-05T15:25:48.050Z,3.00
2018-07-05T15:28:28.503Z,3.00
2018-07-05T15:31:09.553Z,3.30
2018-07-05T15:33:50.234Z,3.33
2018-07-05T15:36:31.035Z,3.40
2018-07-05T15:39:11.850Z,3.60
2018-07-05T15:41:52.521Z,3.23
2018-07-05T15:44:33.449Z,3.63
2018-07-05T15:47:13.912Z,3.93
2018-07-05T15:49:54.834Z,3.37
2018-07-05T15:52:35.662Z,3.57
2018-07-05T15:55:16.435Z,3.10
2018-07-05T15:57:57.262Z,3.37
2018-07-05T16:00:38.124Z,3.00
2018-07-05T16:03:18.499Z,2.43
2018-07-05T16:05:59.462Z,2.60
2018-07-05T16:08:40.055Z,2.67
2018-07-05T16:11:20.597Z,3.30
2018-07-05T16:14:01.246Z,2.80
2018-07-05T16:16:41.889Z,3.13
2018-07-05T16:19:22.705Z,3.37
2018-07-05T16:22:03.447Z,3.60
2018-07-05T16:24:44.439Z,2.77
2018-07-05T16:27:24.922Z,2.70
2018-07-05T16:30:05.320Z,2.70
2018-07-05T16:32:45.860Z,2.77
2018-07-05T16:35:26.570Z,3.00
2018-07-05T16:38:07.027Z,2.90
2018-07-05T16:40:47.670Z,3.20
2018-07-05T16:43:28.190Z,2.93
2018-07-05T16:46:09.347Z,3.43
2018-07-05T16:48:50.203Z,2.80
2018-07-05T16:51:30.589Z,3.07
2018-07-05T16:54:10.895Z,2.63
2018-07-05T16:56:51.550Z,3.10
2018-07-05T16:59:32.389Z,3.73
2018-07-05T17:02:13.272Z,3.20
2018-07-05T17:04:53.808Z,3.40
2018-07-05T17:07:34.708Z,2.30
2018-07-05T17:10:15.152Z,2.50
2018-07-05T17:12:55.966Z,2.47
2018-07-05T17:15:36.879Z,2.73
2018-07-05T17:18:18.255Z,2.70
2018-07-05T17:20:59.049Z,2.27
2018-07-05T17:23:39.699Z,2.33
2018-07-05T17:26:20.249Z,2.40
2018-07-05T17:29:01.041Z,2.00
2018-07-05T17:31:41.591Z,2.13
2018-07-05T17:34:22.114Z,2.10
2018-07-05T17:37:03.383Z,2.70
2018-07-05T17:39:48.025Z,2.40
2018-07-05T17:42:28.694Z,2.47
2018-07-05T17:45:09.578Z,3.07
2018-07-05T17:47:50.288Z,3.23
2018-07-05T17:50:30.939Z,2.60
2018-07-05T17:53:11.495Z,2.57
2018-07-05T17:55:51.942Z,2.43
2018-07-05T17:58:33.129Z,2.50
2018-07-05T18:01:13.478Z,2.90
2018-07-05T18:03:54.133Z,2.80
2018-07-05T18:06:35.104Z,2.37
2018-07-05T18:09:15.947Z,2.40
2018-07-05T18:11:56.683Z,2.27
2018-07-05T18:14:37.597Z,2.30
2018-07-05T18:17:19.103Z,2.57
2018-07-05T18:19:59.953Z,2.00
2018-07-05T18:22:40.453Z,2.20
2018-07-05T18:25:21.711Z,2.20
2018-07-05T18:28:03.290Z,2.13
2018-07-05T18:30:49.146Z,2.53
2018-07-05T18:33:30.073Z,2.40
2018-07-05T18:36:10.510Z,2.30
2018-07-05T18:38:55.700Z,2.23
2018-07-05T18:41:36.424Z,2.03
2018-07-05T18:44:17.049Z,2.03
2018-07-05T18:46:57.632Z,3.20
2018-07-05T18:49:42.337Z,3.10
2018-07-05T18:52:23.180Z,1.87
2018-07-05T18:55:07.436Z,1.73
2018-07-05T18:57:48.193Z,1.77
2018-07-05T19:00:28.667Z,1.80
2018-07-05T19:03:09.197Z,1.80
2018-07-05T19:05:49.560Z,1.90
2018-07-05T19:08:29.994Z,1.60
2018-07-05T19:11:10.710Z,1.90
2018-07-05T19:13:51.417Z,1.83
2018-07-05T19:16:32.237Z,1.50
2018-07-05T19:19:12.760Z,1.30
2018-07-05T19:21:53.835Z,1.20
2018-07-05T19:24:34.402Z,1.20
2018-07-05T19:27:14.965Z,1.30
2018-07-05T19:29:55.312Z,1.47
2018-07-05T19:32:36.131Z,1.30
2018-07-05T19:35:16.968Z,1.40
2018-07-05T19:37:57.445Z,1.57
2018-07-05T19:40:37.764Z,1.40
2018-07-05T19:43:18.321Z,1.20
2018-07-05T19:45:59.049Z,1.30
2018-07-05T19:48:43.754Z,1.17
2018-07-05T19:51:24.628Z,1.40
2018-07-05T19:54:05.386Z,1.30
2018-07-05T19:56:45.795Z,1.30
2018-07-05T19:59:26.685Z,1.50
2018-07-05T20:02:07.216Z,1.47
2018-07-05T20:04:47.762Z,1.40
2018-07-05T20:07:28.274Z,1.50
2018-07-05T20:10:09.066Z,1.40
2018-07-05T20:12:52.716Z,1.43
2018-07-05T20:15:33.587Z,1.30
2018-07-05T20:18:14.490Z,1.53
2018-07-05T20:20:55.190Z,1.67
2018-07-05T20:23:35.582Z,1.50
2018-07-05T20:26:15.873Z,1.20
2018-07-05T20:28:56.726Z,1.50
2018-07-05T20:31:37.456Z,1.50
2018-07-05T20:34:17.903Z,1.57
2018-07-05T20:36:58.554Z,1.33
2018-07-05T20:39:39.350Z,1.50
2018-07-05T20:42:20.206Z,1.43
2018-07-05T20:45:00.518Z,1.40
2018-07-05T20:47:41.442Z,1.50
2018-07-05T20:50:22.220Z,1.60
2018-07-05T20:53:02.620Z,1.57
2018-07-05T20:55:43.287Z,1.53
2018-07-05T20:58:23.713Z,1.40
2018-07-05T21:01:04.679Z,1.43
2018-07-05T21:03:44.963Z,1.40
2018-07-05T21:06:25.870Z,1.30
2018-07-05T21:09:06.450Z,1.70
2018-07-05T21:11:47.377Z,1.60
2018-07-05T21:14:31.582Z,1.37
2018-07-05T21:17:12.090Z,1.63
2018-07-05T21:19:52.780Z,1.50
2018-07-05T21:22:33.888Z,1.40
2018-07-05T21:25:14.702Z,1.67
2018-07-05T21:27:55.730Z,1.30
2018-07-05T21:30:36.199Z,1.60
2018-07-05T21:33:16.820Z,1.70
2018-07-05T21:35:57.143Z,1.50
2018-07-05T21:38:37.741Z,1.80
2018-07-05T21:41:18.768Z,2.20
2018-07-05T21:44:02.502Z,2.17
2018-07-05T21:46:43.336Z,2.00
2018-07-05T21:49:24.108Z,1.90
2018-07-05T21:52:05.226Z,2.07
2018-07-05T21:54:45.994Z,2.00
2018-07-05T21:57:27.014Z,2.13
2018-07-05T22:00:07.434Z,2.03
2018-07-05T22:02:48.094Z,2.00
2018-07-05T22:05:29.192Z,2.10
2018-07-05T22:08:10.039Z,1.87
2018-07-05T22:10:50.745Z,2.20
2018-07-05T22:13:31.262Z,2.33
2018-07-05T22:16:12.020Z,2.40
2018-07-05T22:18:57.807Z,2.20
2018-07-05T22:21:43.616Z,2.40
2018-07-05T22:24:29.496Z,2.00
2018-07-05T22:27:13.990Z,2.40
2018-07-05T22:29:59.858Z,2.40
2018-07-05T22:32:40.742Z,2.60
2018-07-05T22:35:21.272Z,2.40
2018-07-05T22:38:01.964Z,2.20
2018-07-05T22:40:42.806Z,2.23
2018-07-05T22:43:23.298Z,2.57
2018-07-05T22:46:03.704Z,2.40
2018-07-05T22:48:44.275Z,2.60
2018-07-05T22:51:24.978Z,2.20
2018-07-05T22:54:05.765Z,2.50
2018-07-05T22:56:46.310Z,2.20
2018-07-05T22:59:27.030Z,2.30
2018-07-05T23:02:07.741Z,2.47
2018-07-05T23:04:48.283Z,2.93
2018-07-05T23:07:29.136Z,2.80
2018-07-05T23:10:09.669Z,2.73
2018-07-05T23:12:50.425Z,2.30
2018-07-05T23:15:31.492Z,2.70
2018-07-05T23:18:12.562Z,2.90
2018-07-05T23:20:52.975Z,2.73
2018-07-05T23:23:33.653Z,2.67
2018-07-05T23:26:14.131Z,2.50
2018-07-05T23:28:55.146Z,2.70
2018-07-05T23:31:36.120Z,2.70
2018-07-05T23:34:16.424Z,2.30
2018-07-05T23:36:57.360Z,2.63
2018-07-05T23:39:37.704Z,2.60
2018-07-05T23:42:18.648Z,2.80
2018-07-05T23:44:59.482Z,2.67
2018-07-05T23:47:39.743Z,2.80
2018-07-05T23:50:20.979Z,2.97
2018-07-05T23:53:01.632Z,2.80
2018-07-05T23:55:42.460Z,3.03
2018-07-05T23:58:23.189Z,3.20
